sensor_id;sensor_type;location;lat;lon;timestamp;temperature;humidity
23597;DHT22;40226;50.874;4.394;2022-12-29T00:00:10;11.60;99.90
23597;DHT22;40226;50.874;4.394;2022-12-29T00:02:36;11.50;99.90
23597;DHT22;40226;50.874;4.394;2022-12-29T00:05:02;11.50;99.90
23597;DHT22;40226;50.874;4.394;2022-12-29T00:07:27;11.60;99.90
23597;DHT22;40226;50.874;4.394;2022-12-29T00:09:53;11.60;99.90
23597;DHT22;40226;50.874;4.394;2022-12-29T00:12:19;11.60;99.90
23597;DHT22;40226;50.874;4.394;2022-12-29T00:14:44;11.60;99.90
23597;DHT22;40226;50.874;4.394;2022-12-29T00:17:29;11.70;99.90
23597;DHT22;40226;50.874;4.394;2022-12-29T00:19:55;11.70;99.90
23597;DHT22;40226;50.874;4.394;2022-12-29T00:22:39;11.70;99.90
23597;DHT22;40226;50.874;4.394;2022-12-29T00:25:23;11.70;99.90
23597;DHT22;40226;50.874;4.394;2022-12-29T00:28:10;11.70;99.90
23597;DHT22;40226;50.874;4.394;2022-12-29T00:30:59;11.80;99.90
23597;DHT22;40226;50.874;4.394;2022-12-29T00:33:43;11.80;99.90
23597;DHT22;40226;50.874;4.394;2022-12-29T00:36:34;11.80;99.90
23597;DHT22;40226;50.874;4.394;2022-12-29T00:39:05;11.80;99.90
23597;DHT22;40226;50.874;4.394;2022-12-29T00:41:51;11.90;99.90
23597;DHT22;40226;50.874;4.394;2022-12-29T00:44:35;11.90;99.90
23597;DHT22;40226;50.874;4.394;2022-12-29T00:47:01;12.00;99.90
23597;DHT22;40226;50.874;4.394;2022-12-29T00:49:30;12.00;99.90
23597;DHT22;40226;50.874;4.394;2022-12-29T00:52:09;12.00;99.90
23597;DHT22;40226;50.874;4.394;2022-12-29T00:54:37;12.00;99.90
23597;DHT22;40226;50.874;4.394;2022-12-29T00:57:05;12.00;99.90
23597;DHT22;40226;50.874;4.394;2022-12-29T00:59:32;12.00;99.90
23597;DHT22;40226;50.874;4.394;2022-12-29T01:01:58;12.00;99.90
23597;DHT22;40226;50.874;4.394;2022-12-29T01:04:25;12.00;99.90
23597;DHT22;40226;50.874;4.394;2022-12-29T01:06:51;12.00;99.90
23597;DHT22;40226;50.874;4.394;2022-12-29T01:09:17;12.00;99.90
23597;DHT22;40226;50.874;4.394;2022-12-29T01:12:02;12.00;99.90
23597;DHT22;40226;50.874;4.394;2022-12-29T01:14:28;12.00;99.90
23597;DHT22;40226;50.874;4.394;2022-12-29T01:16:55;12.00;99.90
23597;DHT22;40226;50.874;4.394;2022-12-29T01:19:21;11.90;99.90
23597;DHT22;40226;50.874;4.394;2022-12-29T01:21:47;11.70;99.90
23597;DHT22;40226;50.874;4.394;2022-12-29T01:24:15;11.60;99.90
23597;DHT22;40226;50.874;4.394;2022-12-29T01:26:41;11.50;99.90
23597;DHT22;40226;50.874;4.394;2022-12-29T01:29:08;11.50;99.90
23597;DHT22;40226;50.874;4.394;2022-12-29T01:31:35;11.40;99.90
23597;DHT22;40226;50.874;4.394;2022-12-29T01:34:05;11.30;99.90
23597;DHT22;40226;50.874;4.394;2022-12-29T01:36:31;11.20;99.90
23597;DHT22;40226;50.874;4.394;2022-12-29T01:38:57;11.10;99.90
23597;DHT22;40226;50.874;4.394;2022-12-29T01:41:23;11.10;99.90
23597;DHT22;40226;50.874;4.394;2022-12-29T01:43:50;11.10;99.90
23597;DHT22;40226;50.874;4.394;2022-12-29T01:51:25;11.10;99.90
23597;DHT22;40226;50.874;4.394;2022-12-29T01:53:52;11.10;99.90
23597;DHT22;40226;50.874;4.394;2022-12-29T01:56:20;11.10;99.90
23597;DHT22;40226;50.874;4.394;2022-12-29T01:58:49;11.10;99.90
23597;DHT22;40226;50.874;4.394;2022-12-29T02:01:19;11.10;99.90
23597;DHT22;40226;50.874;4.394;2022-12-29T02:03:51;11.00;99.90
23597;DHT22;40226;50.874;4.394;2022-12-29T02:06:27;11.10;99.90
23597;DHT22;40226;50.874;4.394;2022-12-29T02:08:55;11.10;99.90
23597;DHT22;40226;50.874;4.394;2022-12-29T02:11:23;11.10;99.90
23597;DHT22;40226;50.874;4.394;2022-12-29T02:13:49;10.90;99.90
23597;DHT22;40226;50.874;4.394;2022-12-29T02:19:42;10.60;99.90
23597;DHT22;40226;50.874;4.394;2022-12-29T02:47:38;9.90;99.90
23597;DHT22;40226;50.874;4.394;2022-12-29T02:50:15;10.00;99.90
23597;DHT22;40226;50.874;4.394;2022-12-29T02:52:48;9.90;99.90
23597;DHT22;40226;50.874;4.394;2022-12-29T02:55:15;9.90;99.90
23597;DHT22;40226;50.874;4.394;2022-12-29T02:57:40;9.90;99.90
23597;DHT22;40226;50.874;4.394;2022-12-29T03:00:08;9.90;99.90
23597;DHT22;40226;50.874;4.394;2022-12-29T03:03:13;9.90;99.90
23597;DHT22;40226;50.874;4.394;2022-12-29T03:11:46;9.80;99.90
23597;DHT22;40226;50.874;4.394;2022-12-29T03:14:37;9.70;99.90
23597;DHT22;40226;50.874;4.394;2022-12-29T03:17:31;9.50;99.90
23597;DHT22;40226;50.874;4.394;2022-12-29T03:20:07;9.50;99.90
23597;DHT22;40226;50.874;4.394;2022-12-29T03:22:36;9.40;99.90
23597;DHT22;40226;50.874;4.394;2022-12-29T03:25:18;9.50;99.90
23597;DHT22;40226;50.874;4.394;2022-12-29T03:27:49;9.50;99.90
23597;DHT22;40226;50.874;4.394;2022-12-29T03:30:16;9.50;99.90
23597;DHT22;40226;50.874;4.394;2022-12-29T03:32:45;9.60;99.90
23597;DHT22;40226;50.874;4.394;2022-12-29T03:35:14;9.70;99.90
23597;DHT22;40226;50.874;4.394;2022-12-29T03:37:45;9.70;99.90
23597;DHT22;40226;50.874;4.394;2022-12-29T03:40:13;9.70;99.90
23597;DHT22;40226;50.874;4.394;2022-12-29T03:42:39;9.80;99.90
23597;DHT22;40226;50.874;4.394;2022-12-29T03:45:07;9.80;99.90
23597;DHT22;40226;50.874;4.394;2022-12-29T03:47:33;9.90;99.90
23597;DHT22;40226;50.874;4.394;2022-12-29T03:49:58;9.90;99.90
23597;DHT22;40226;50.874;4.394;2022-12-29T03:52:24;9.90;99.90
23597;DHT22;40226;50.874;4.394;2022-12-29T03:54:50;10.00;99.90
23597;DHT22;40226;50.874;4.394;2022-12-29T03:57:15;10.00;99.90
23597;DHT22;40226;50.874;4.394;2022-12-29T03:59:41;10.00;99.90
23597;DHT22;40226;50.874;4.394;2022-12-29T04:02:07;10.00;99.90
23597;DHT22;40226;50.874;4.394;2022-12-29T04:04:32;10.00;99.90
23597;DHT22;40226;50.874;4.394;2022-12-29T04:06:58;10.00;99.90
23597;DHT22;40226;50.874;4.394;2022-12-29T04:09:23;9.90;99.90
23597;DHT22;40226;50.874;4.394;2022-12-29T04:11:49;10.00;99.90
23597;DHT22;40226;50.874;4.394;2022-12-29T04:14:14;10.00;99.90
23597;DHT22;40226;50.874;4.394;2022-12-29T04:16:40;10.00;99.90
23597;DHT22;40226;50.874;4.394;2022-12-29T04:19:06;9.90;99.90
23597;DHT22;40226;50.874;4.394;2022-12-29T04:21:32;9.80;99.90
23597;DHT22;40226;50.874;4.394;2022-12-29T04:23:58;9.80;99.90
23597;DHT22;40226;50.874;4.394;2022-12-29T04:26:24;9.80;99.90
23597;DHT22;40226;50.874;4.394;2022-12-29T04:28:49;9.80;99.90
23597;DHT22;40226;50.874;4.394;2022-12-29T04:31:15;9.80;99.90
23597;DHT22;40226;50.874;4.394;2022-12-29T04:33:40;9.80;99.90
23597;DHT22;40226;50.874;4.394;2022-12-29T04:36:06;9.80;99.90
23597;DHT22;40226;50.874;4.394;2022-12-29T04:38:32;9.80;99.90
23597;DHT22;40226;50.874;4.394;2022-12-29T04:41:00;9.80;99.90
23597;DHT22;40226;50.874;4.394;2022-12-29T04:43:26;9.90;99.90
23597;DHT22;40226;50.874;4.394;2022-12-29T04:45:52;9.90;99.90
23597;DHT22;40226;50.874;4.394;2022-12-29T04:48:17;9.90;99.90
23597;DHT22;40226;50.874;4.394;2022-12-29T04:50:44;9.90;99.90
23597;DHT22;40226;50.874;4.394;2022-12-29T04:53:09;9.90;99.90
23597;DHT22;40226;50.874;4.394;2022-12-29T04:55:35;10.00;99.90
23597;DHT22;40226;50.874;4.394;2022-12-29T04:58:01;9.90;99.90
23597;DHT22;40226;50.874;4.394;2022-12-29T05:00:27;10.00;99.90
23597;DHT22;40226;50.874;4.394;2022-12-29T05:02:52;10.00;99.90
23597;DHT22;40226;50.874;4.394;2022-12-29T05:05:18;10.00;99.90
23597;DHT22;40226;50.874;4.394;2022-12-29T05:07:43;10.00;99.90
23597;DHT22;40226;50.874;4.394;2022-12-29T05:10:10;10.00;99.90
23597;DHT22;40226;50.874;4.394;2022-12-29T05:12:37;10.10;99.90
23597;DHT22;40226;50.874;4.394;2022-12-29T05:15:04;10.10;99.90
23597;DHT22;40226;50.874;4.394;2022-12-29T05:17:30;10.00;99.90
23597;DHT22;40226;50.874;4.394;2022-12-29T05:19:56;10.00;99.90
23597;DHT22;40226;50.874;4.394;2022-12-29T05:22:21;10.10;99.90
23597;DHT22;40226;50.874;4.394;2022-12-29T05:24:47;10.10;99.90
23597;DHT22;40226;50.874;4.394;2022-12-29T05:27:13;10.10;99.90
23597;DHT22;40226;50.874;4.394;2022-12-29T05:29:39;10.20;99.90
23597;DHT22;40226;50.874;4.394;2022-12-29T05:32:04;10.20;99.90
23597;DHT22;40226;50.874;4.394;2022-12-29T05:34:30;10.20;99.90
23597;DHT22;40226;50.874;4.394;2022-12-29T05:36:56;10.30;99.90
23597;DHT22;40226;50.874;4.394;2022-12-29T05:39:21;10.30;99.90
23597;DHT22;40226;50.874;4.394;2022-12-29T05:41:47;10.30;99.90
23597;DHT22;40226;50.874;4.394;2022-12-29T05:44:13;10.30;99.90
23597;DHT22;40226;50.874;4.394;2022-12-29T05:46:38;10.30;99.90
23597;DHT22;40226;50.874;4.394;2022-12-29T05:49:05;10.30;99.90
23597;DHT22;40226;50.874;4.394;2022-12-29T05:51:31;10.30;99.90
23597;DHT22;40226;50.874;4.394;2022-12-29T05:53:56;10.20;99.90
23597;DHT22;40226;50.874;4.394;2022-12-29T05:56:22;10.30;99.90
23597;DHT22;40226;50.874;4.394;2022-12-29T05:58:48;10.30;99.90
23597;DHT22;40226;50.874;4.394;2022-12-29T06:01:14;10.30;99.90
23597;DHT22;40226;50.874;4.394;2022-12-29T06:03:39;10.30;99.90
23597;DHT22;40226;50.874;4.394;2022-12-29T06:06:05;10.30;99.90
23597;DHT22;40226;50.874;4.394;2022-12-29T06:08:31;10.20;99.90
23597;DHT22;40226;50.874;4.394;2022-12-29T06:10:56;10.20;99.90
23597;DHT22;40226;50.874;4.394;2022-12-29T06:13:22;10.20;99.90
23597;DHT22;40226;50.874;4.394;2022-12-29T06:15:48;10.20;99.90
23597;DHT22;40226;50.874;4.394;2022-12-29T06:18:15;10.20;99.90
23597;DHT22;40226;50.874;4.394;2022-12-29T06:20:41;10.20;99.90
23597;DHT22;40226;50.874;4.394;2022-12-29T06:23:06;10.20;99.90
23597;DHT22;40226;50.874;4.394;2022-12-29T06:25:32;10.20;99.90
23597;DHT22;40226;50.874;4.394;2022-12-29T06:27:59;10.20;99.90
23597;DHT22;40226;50.874;4.394;2022-12-29T06:30:25;10.20;99.90
23597;DHT22;40226;50.874;4.394;2022-12-29T06:32:52;10.30;99.90
23597;DHT22;40226;50.874;4.394;2022-12-29T06:35:18;10.20;99.90
23597;DHT22;40226;50.874;4.394;2022-12-29T06:37:43;10.30;99.90
23597;DHT22;40226;50.874;4.394;2022-12-29T06:40:09;10.30;99.90
23597;DHT22;40226;50.874;4.394;2022-12-29T06:42:35;10.40;99.90
23597;DHT22;40226;50.874;4.394;2022-12-29T06:45:01;10.40;99.90
23597;DHT22;40226;50.874;4.394;2022-12-29T06:47:27;10.50;99.90
23597;DHT22;40226;50.874;4.394;2022-12-29T06:49:52;10.50;99.90
23597;DHT22;40226;50.874;4.394;2022-12-29T06:52:18;10.50;99.90
23597;DHT22;40226;50.874;4.394;2022-12-29T06:54:43;10.50;99.90
23597;DHT22;40226;50.874;4.394;2022-12-29T06:57:09;10.50;99.90
23597;DHT22;40226;50.874;4.394;2022-12-29T06:59:35;10.50;99.90
23597;DHT22;40226;50.874;4.394;2022-12-29T07:02:00;10.50;99.90
23597;DHT22;40226;50.874;4.394;2022-12-29T07:04:27;10.60;99.90
23597;DHT22;40226;50.874;4.394;2022-12-29T07:06:53;10.60;99.90
23597;DHT22;40226;50.874;4.394;2022-12-29T07:09:19;10.60;99.90
23597;DHT22;40226;50.874;4.394;2022-12-29T07:11:44;10.60;99.90
23597;DHT22;40226;50.874;4.394;2022-12-29T07:14:11;10.60;99.90
23597;DHT22;40226;50.874;4.394;2022-12-29T07:16:36;10.60;99.90
23597;DHT22;40226;50.874;4.394;2022-12-29T07:19:02;10.60;99.90
23597;DHT22;40226;50.874;4.394;2022-12-29T07:21:28;10.60;99.90
23597;DHT22;40226;50.874;4.394;2022-12-29T07:23:54;10.70;99.90
23597;DHT22;40226;50.874;4.394;2022-12-29T07:26:20;10.60;99.90
23597;DHT22;40226;50.874;4.394;2022-12-29T07:28:45;10.60;99.90
23597;DHT22;40226;50.874;4.394;2022-12-29T07:31:15;10.70;99.90
23597;DHT22;40226;50.874;4.394;2022-12-29T07:33:41;10.70;99.90
23597;DHT22;40226;50.874;4.394;2022-12-29T07:36:08;10.70;99.90
23597;DHT22;40226;50.874;4.394;2022-12-29T07:38:34;10.70;99.90
23597;DHT22;40226;50.874;4.394;2022-12-29T07:41:00;10.70;99.90
23597;DHT22;40226;50.874;4.394;2022-12-29T07:43:25;10.70;99.90
23597;DHT22;40226;50.874;4.394;2022-12-29T07:45:51;10.70;99.90
23597;DHT22;40226;50.874;4.394;2022-12-29T07:48:17;10.70;99.90
23597;DHT22;40226;50.874;4.394;2022-12-29T07:50:42;10.70;99.90
23597;DHT22;40226;50.874;4.394;2022-12-29T07:53:08;10.70;99.90
23597;DHT22;40226;50.874;4.394;2022-12-29T07:55:33;10.70;99.90
23597;DHT22;40226;50.874;4.394;2022-12-29T07:57:59;10.70;99.90
23597;DHT22;40226;50.874;4.394;2022-12-29T08:00:25;10.70;99.90
23597;DHT22;40226;50.874;4.394;2022-12-29T08:02:51;10.70;99.90
23597;DHT22;40226;50.874;4.394;2022-12-29T08:05:16;10.70;99.90
23597;DHT22;40226;50.874;4.394;2022-12-29T08:07:46;10.70;99.90
23597;DHT22;40226;50.874;4.394;2022-12-29T08:10:12;10.70;99.90
23597;DHT22;40226;50.874;4.394;2022-12-29T08:12:39;10.70;99.90
23597;DHT22;40226;50.874;4.394;2022-12-29T08:15:06;10.70;99.90
23597;DHT22;40226;50.874;4.394;2022-12-29T08:17:32;10.70;99.90
23597;DHT22;40226;50.874;4.394;2022-12-29T08:19:58;10.70;99.90
23597;DHT22;40226;50.874;4.394;2022-12-29T08:22:24;10.70;99.90
23597;DHT22;40226;50.874;4.394;2022-12-29T08:24:50;10.70;99.90
23597;DHT22;40226;50.874;4.394;2022-12-29T08:27:15;10.70;99.90
23597;DHT22;40226;50.874;4.394;2022-12-29T08:29:41;10.70;99.90
23597;DHT22;40226;50.874;4.394;2022-12-29T08:32:07;10.70;99.90
23597;DHT22;40226;50.874;4.394;2022-12-29T08:34:33;10.70;99.90
23597;DHT22;40226;50.874;4.394;2022-12-29T08:36:58;10.70;99.90
23597;DHT22;40226;50.874;4.394;2022-12-29T08:39:24;10.70;99.90
23597;DHT22;40226;50.874;4.394;2022-12-29T08:41:50;10.70;99.90
23597;DHT22;40226;50.874;4.394;2022-12-29T08:44:15;10.70;99.90
23597;DHT22;40226;50.874;4.394;2022-12-29T08:46:41;10.70;99.90
23597;DHT22;40226;50.874;4.394;2022-12-29T08:49:07;10.70;99.90
23597;DHT22;40226;50.874;4.394;2022-12-29T08:51:33;10.70;99.90
23597;DHT22;40226;50.874;4.394;2022-12-29T08:53:59;10.70;99.90
23597;DHT22;40226;50.874;4.394;2022-12-29T08:56:24;10.70;99.90
23597;DHT22;40226;50.874;4.394;2022-12-29T08:58:51;10.70;99.90
23597;DHT22;40226;50.874;4.394;2022-12-29T09:01:17;10.70;99.90
23597;DHT22;40226;50.874;4.394;2022-12-29T09:03:43;10.80;99.90
23597;DHT22;40226;50.874;4.394;2022-12-29T09:06:09;10.70;99.90
23597;DHT22;40226;50.874;4.394;2022-12-29T09:08:34;10.60;99.90
23597;DHT22;40226;50.874;4.394;2022-12-29T09:11:40;10.50;99.90
23597;DHT22;40226;50.874;4.394;2022-12-29T09:13:59;10.50;99.90
23597;DHT22;40226;50.874;4.394;2022-12-29T09:16:24;10.50;99.90
23597;DHT22;40226;50.874;4.394;2022-12-29T09:18:50;10.40;99.90
23597;DHT22;40226;50.874;4.394;2022-12-29T09:21:16;10.30;99.90
23597;DHT22;40226;50.874;4.394;2022-12-29T09:23:41;10.30;99.90
23597;DHT22;40226;50.874;4.394;2022-12-29T09:26:08;10.30;99.90
23597;DHT22;40226;50.874;4.394;2022-12-29T09:28:34;10.30;99.90
23597;DHT22;40226;50.874;4.394;2022-12-29T09:31:00;10.20;99.90
23597;DHT22;40226;50.874;4.394;2022-12-29T09:33:25;10.30;99.90
23597;DHT22;40226;50.874;4.394;2022-12-29T09:35:54;10.10;99.90
23597;DHT22;40226;50.874;4.394;2022-12-29T09:38:20;9.90;99.90
23597;DHT22;40226;50.874;4.394;2022-12-29T09:40:50;9.90;99.90
23597;DHT22;40226;50.874;4.394;2022-12-29T09:46:28;9.80;99.90
23597;DHT22;40226;50.874;4.394;2022-12-29T09:51:37;9.70;99.90
23597;DHT22;40226;50.874;4.394;2022-12-29T09:54:20;9.70;99.90
23597;DHT22;40226;50.874;4.394;2022-12-29T09:56:49;9.80;99.90
23597;DHT22;40226;50.874;4.394;2022-12-29T09:59:19;9.90;99.90
23597;DHT22;40226;50.874;4.394;2022-12-29T10:01:58;10.10;99.90
23597;DHT22;40226;50.874;4.394;2022-12-29T10:04:27;10.20;99.90
23597;DHT22;40226;50.874;4.394;2022-12-29T10:07:05;10.30;99.90
23597;DHT22;40226;50.874;4.394;2022-12-29T10:10:02;10.30;99.90
23597;DHT22;40226;50.874;4.394;2022-12-29T10:16:01;10.40;99.90
23597;DHT22;40226;50.874;4.394;2022-12-29T10:18:59;10.40;99.90
23597;DHT22;40226;50.874;4.394;2022-12-29T10:24:34;10.40;99.90
23597;DHT22;40226;50.874;4.394;2022-12-29T10:27:03;10.40;99.90
23597;DHT22;40226;50.874;4.394;2022-12-29T10:29:37;10.50;99.90
23597;DHT22;40226;50.874;4.394;2022-12-29T10:34:50;10.50;99.90
23597;DHT22;40226;50.874;4.394;2022-12-29T10:40:40;10.60;99.90
23597;DHT22;40226;50.874;4.394;2022-12-29T10:45:45;10.70;99.90
23597;DHT22;40226;50.874;4.394;2022-12-29T10:48:23;10.70;99.90
23597;DHT22;40226;50.874;4.394;2022-12-29T10:50:50;10.70;99.90
23597;DHT22;40226;50.874;4.394;2022-12-29T10:53:24;10.70;99.90
23597;DHT22;40226;50.874;4.394;2022-12-29T10:55:51;10.80;99.90
23597;DHT22;40226;50.874;4.394;2022-12-29T10:58:17;10.90;99.90
23597;DHT22;40226;50.874;4.394;2022-12-29T11:00:49;11.00;99.90
23597;DHT22;40226;50.874;4.394;2022-12-29T11:06:12;11.00;99.90
23597;DHT22;40226;50.874;4.394;2022-12-29T11:08:45;11.00;99.90
23597;DHT22;40226;50.874;4.394;2022-12-29T11:11:23;11.00;99.90
23597;DHT22;40226;50.874;4.394;2022-12-29T11:13:51;10.90;99.90
23597;DHT22;40226;50.874;4.394;2022-12-29T11:16:41;11.00;99.90
23597;DHT22;40226;50.874;4.394;2022-12-29T11:19:31;10.90;99.90
23597;DHT22;40226;50.874;4.394;2022-12-29T11:22:14;10.90;99.90
23597;DHT22;40226;50.874;4.394;2022-12-29T11:24:47;11.10;99.90
23597;DHT22;40226;50.874;4.394;2022-12-29T11:27:22;11.20;99.90
23597;DHT22;40226;50.874;4.394;2022-12-29T11:29:49;11.30;99.90
23597;DHT22;40226;50.874;4.394;2022-12-29T11:32:20;11.30;99.90
23597;DHT22;40226;50.874;4.394;2022-12-29T11:34:46;11.10;99.90
23597;DHT22;40226;50.874;4.394;2022-12-29T11:37:18;11.10;99.90
23597;DHT22;40226;50.874;4.394;2022-12-29T11:40:03;11.00;99.90
23597;DHT22;40226;50.874;4.394;2022-12-29T11:43:22;10.80;99.90
23597;DHT22;40226;50.874;4.394;2022-12-29T11:45:35;10.60;99.90
23597;DHT22;40226;50.874;4.394;2022-12-29T11:48:18;10.60;99.90
23597;DHT22;40226;50.874;4.394;2022-12-29T11:50:54;10.60;99.90
23597;DHT22;40226;50.874;4.394;2022-12-29T11:53:38;10.60;99.90
23597;DHT22;40226;50.874;4.394;2022-12-29T11:56:12;10.40;99.90
23597;DHT22;40226;50.874;4.394;2022-12-29T11:58:39;10.30;99.90
23597;DHT22;40226;50.874;4.394;2022-12-29T12:01:28;10.30;99.90
23597;DHT22;40226;50.874;4.394;2022-12-29T12:06:29;10.50;99.90
23597;DHT22;40226;50.874;4.394;2022-12-29T12:09:01;10.40;99.90
23597;DHT22;40226;50.874;4.394;2022-12-29T12:11:32;10.40;99.90
23597;DHT22;40226;50.874;4.394;2022-12-29T12:14:19;10.40;99.90
23597;DHT22;40226;50.874;4.394;2022-12-29T12:24:36;10.50;99.90
23597;DHT22;40226;50.874;4.394;2022-12-29T12:32:21;10.30;99.90
23597;DHT22;40226;50.874;4.394;2022-12-29T12:34:49;10.30;99.90
23597;DHT22;40226;50.874;4.394;2022-12-29T12:45:31;10.60;99.90
23597;DHT22;40226;50.874;4.394;2022-12-29T12:53:49;10.60;99.90
23597;DHT22;40226;50.874;4.394;2022-12-29T12:56:51;10.60;99.90
23597;DHT22;40226;50.874;4.394;2022-12-29T13:07:59;10.50;99.90
23597;DHT22;40226;50.874;4.394;2022-12-29T13:16:15;10.60;99.90
23597;DHT22;40226;50.874;4.394;2022-12-29T13:28:16;10.60;99.90
23597;DHT22;40226;50.874;4.394;2022-12-29T13:30:22;10.70;99.90
23597;DHT22;40226;50.874;4.394;2022-12-29T13:33:04;10.70;99.90
23597;DHT22;40226;50.874;4.394;2022-12-29T13:38:40;10.80;99.90
23597;DHT22;40226;50.874;4.394;2022-12-29T13:43:53;10.60;99.90
23597;DHT22;40226;50.874;4.394;2022-12-29T13:46:26;10.60;99.90
23597;DHT22;40226;50.874;4.394;2022-12-29T13:51:25;10.60;99.90
23597;DHT22;40226;50.874;4.394;2022-12-29T13:56:26;10.50;99.90
23597;DHT22;40226;50.874;4.394;2022-12-29T13:59:26;10.40;99.90
23597;DHT22;40226;50.874;4.394;2022-12-29T14:02:07;10.40;99.90
23597;DHT22;40226;50.874;4.394;2022-12-29T14:04:35;10.40;99.90
23597;DHT22;40226;50.874;4.394;2022-12-29T14:07:13;10.30;99.90
23597;DHT22;40226;50.874;4.394;2022-12-29T14:09:47;10.40;99.90
23597;DHT22;40226;50.874;4.394;2022-12-29T14:17:36;10.50;99.90
23597;DHT22;40226;50.874;4.394;2022-12-29T14:20:04;10.40;99.90
23597;DHT22;40226;50.874;4.394;2022-12-29T14:22:32;10.50;99.90
23597;DHT22;40226;50.874;4.394;2022-12-29T14:24:59;10.50;99.90
23597;DHT22;40226;50.874;4.394;2022-12-29T14:29:53;10.50;99.90
23597;DHT22;40226;50.874;4.394;2022-12-29T14:35:31;10.50;99.90
23597;DHT22;40226;50.874;4.394;2022-12-29T14:37:46;10.60;99.90
23597;DHT22;40226;50.874;4.394;2022-12-29T14:40:24;10.80;99.90
23597;DHT22;40226;50.874;4.394;2022-12-29T14:42:53;10.80;99.90
23597;DHT22;40226;50.874;4.394;2022-12-29T14:45:25;10.20;99.90
23597;DHT22;40226;50.874;4.394;2022-12-29T14:47:52;9.70;99.90
23597;DHT22;40226;50.874;4.394;2022-12-29T14:50:34;9.00;99.90
23597;DHT22;40226;50.874;4.394;2022-12-29T14:53:06;8.90;99.90
23597;DHT22;40226;50.874;4.394;2022-12-29T14:55:54;8.70;99.90
23597;DHT22;40226;50.874;4.394;2022-12-29T14:58:32;8.70;99.90
23597;DHT22;40226;50.874;4.394;2022-12-29T15:01:01;8.70;99.90
23597;DHT22;40226;50.874;4.394;2022-12-29T15:03:43;8.60;99.90
23597;DHT22;40226;50.874;4.394;2022-12-29T15:06:11;8.50;99.90
23597;DHT22;40226;50.874;4.394;2022-12-29T15:08:51;8.50;99.90
23597;DHT22;40226;50.874;4.394;2022-12-29T15:11:24;8.60;99.90
23597;DHT22;40226;50.874;4.394;2022-12-29T15:13:50;8.40;99.90
23597;DHT22;40226;50.874;4.394;2022-12-29T15:16:23;8.30;99.90
23597;DHT22;40226;50.874;4.394;2022-12-29T15:18:49;8.10;99.90
23597;DHT22;40226;50.874;4.394;2022-12-29T15:21:15;8.00;99.90
23597;DHT22;40226;50.874;4.394;2022-12-29T15:23:44;8.10;99.90
23597;DHT22;40226;50.874;4.394;2022-12-29T15:26:10;8.00;99.90
23597;DHT22;40226;50.874;4.394;2022-12-29T15:28:45;8.00;99.90
23597;DHT22;40226;50.874;4.394;2022-12-29T15:33:48;8.00;99.90
23597;DHT22;40226;50.874;4.394;2022-12-29T15:36:26;7.90;99.90
23597;DHT22;40226;50.874;4.394;2022-12-29T15:38:52;8.00;99.90
23597;DHT22;40226;50.874;4.394;2022-12-29T15:46:19;7.90;99.90
23597;DHT22;40226;50.874;4.394;2022-12-29T15:48:44;8.00;99.90
23597;DHT22;40226;50.874;4.394;2022-12-29T15:51:33;8.10;99.90
23597;DHT22;40226;50.874;4.394;2022-12-29T15:53:59;8.10;99.90
23597;DHT22;40226;50.874;4.394;2022-12-29T15:56:28;8.20;99.90
23597;DHT22;40226;50.874;4.394;2022-12-29T15:58:54;8.10;99.90
23597;DHT22;40226;50.874;4.394;2022-12-29T16:01:24;8.10;99.90
23597;DHT22;40226;50.874;4.394;2022-12-29T16:03:52;8.10;99.90
23597;DHT22;40226;50.874;4.394;2022-12-29T16:08:57;8.10;99.90
23597;DHT22;40226;50.874;4.394;2022-12-29T16:11:28;8.00;99.90
23597;DHT22;40226;50.874;4.394;2022-12-29T16:13:55;8.00;99.90
23597;DHT22;40226;50.874;4.394;2022-12-29T16:16:35;8.00;99.90
23597;DHT22;40226;50.874;4.394;2022-12-29T16:19:14;8.00;99.90
23597;DHT22;40226;50.874;4.394;2022-12-29T16:21:43;7.90;99.90
23597;DHT22;40226;50.874;4.394;2022-12-29T16:24:16;7.90;99.90
23597;DHT22;40226;50.874;4.394;2022-12-29T16:27:44;7.90;99.90
23597;DHT22;40226;50.874;4.394;2022-12-29T16:30:31;8.00;99.90
23597;DHT22;40226;50.874;4.394;2022-12-29T16:33:02;8.00;99.90
23597;DHT22;40226;50.874;4.394;2022-12-29T16:35:48;7.90;99.90
23597;DHT22;40226;50.874;4.394;2022-12-29T16:42:32;7.90;99.90
23597;DHT22;40226;50.874;4.394;2022-12-29T16:45:33;7.90;99.90
23597;DHT22;40226;50.874;4.394;2022-12-29T16:50:33;7.90;99.90
23597;DHT22;40226;50.874;4.394;2022-12-29T16:53:00;8.00;99.90
23597;DHT22;40226;50.874;4.394;2022-12-29T16:55:25;7.90;99.90
23597;DHT22;40226;50.874;4.394;2022-12-29T16:57:53;8.00;99.90
23597;DHT22;40226;50.874;4.394;2022-12-29T17:00:23;8.00;99.90
23597;DHT22;40226;50.874;4.394;2022-12-29T17:02:52;8.00;99.90
23597;DHT22;40226;50.874;4.394;2022-12-29T17:05:19;8.00;99.90
23597;DHT22;40226;50.874;4.394;2022-12-29T17:07:45;8.00;99.90
23597;DHT22;40226;50.874;4.394;2022-12-29T17:10:11;8.00;99.90
23597;DHT22;40226;50.874;4.394;2022-12-29T17:12:56;8.00;99.90
23597;DHT22;40226;50.874;4.394;2022-12-29T17:15:26;8.00;99.90
23597;DHT22;40226;50.874;4.394;2022-12-29T17:17:58;8.00;99.90
23597;DHT22;40226;50.874;4.394;2022-12-29T17:20:30;8.10;99.90
23597;DHT22;40226;50.874;4.394;2022-12-29T17:22:59;8.00;99.90
23597;DHT22;40226;50.874;4.394;2022-12-29T17:25:36;8.00;99.90
23597;DHT22;40226;50.874;4.394;2022-12-29T17:28:16;8.10;99.90
23597;DHT22;40226;50.874;4.394;2022-12-29T17:30:44;8.10;99.90
23597;DHT22;40226;50.874;4.394;2022-12-29T17:33:13;8.00;99.90
23597;DHT22;40226;50.874;4.394;2022-12-29T17:35:39;8.00;99.90
23597;DHT22;40226;50.874;4.394;2022-12-29T17:38:21;8.00;99.90
23597;DHT22;40226;50.874;4.394;2022-12-29T17:40:48;8.00;99.90
23597;DHT22;40226;50.874;4.394;2022-12-29T17:43:15;8.10;99.90
23597;DHT22;40226;50.874;4.394;2022-12-29T17:45:42;8.10;99.90
23597;DHT22;40226;50.874;4.394;2022-12-29T17:48:16;8.10;99.90
23597;DHT22;40226;50.874;4.394;2022-12-29T17:50:43;8.10;99.90
23597;DHT22;40226;50.874;4.394;2022-12-29T17:53:24;8.10;99.90
23597;DHT22;40226;50.874;4.394;2022-12-29T17:55:50;8.10;99.90
23597;DHT22;40226;50.874;4.394;2022-12-29T17:58:25;8.10;99.90
23597;DHT22;40226;50.874;4.394;2022-12-29T18:00:56;8.10;99.90
23597;DHT22;40226;50.874;4.394;2022-12-29T18:03:39;8.10;99.90
23597;DHT22;40226;50.874;4.394;2022-12-29T18:06:06;8.10;99.90
23597;DHT22;40226;50.874;4.394;2022-12-29T18:08:37;8.00;99.90
23597;DHT22;40226;50.874;4.394;2022-12-29T18:11:05;8.10;99.90
23597;DHT22;40226;50.874;4.394;2022-12-29T18:13:31;8.00;99.90
23597;DHT22;40226;50.874;4.394;2022-12-29T18:16:03;8.00;99.90
23597;DHT22;40226;50.874;4.394;2022-12-29T18:18:29;8.00;99.90
23597;DHT22;40226;50.874;4.394;2022-12-29T18:20:58;8.00;99.90
23597;DHT22;40226;50.874;4.394;2022-12-29T18:23:26;7.90;99.90
23597;DHT22;40226;50.874;4.394;2022-12-29T18:26:04;7.90;99.90
23597;DHT22;40226;50.874;4.394;2022-12-29T18:28:31;7.90;99.90